WMT469 EDDN-LRSB
Flight info
| Callsign | WMT469 |
|---|---|
| Flight time | N/A |
| Altitude | 37000 |
| Route | RODIS1G/28 RODIS L604 LAMSI DCT TAGAS DCT PESAT DCT TEKNO DCT ZOLKU DCT GILEP DCT BUDOP DCT IBINU |
| Aircraft | A320/M-SDE1E2E3FGIJ1J4RWXY/LB1 |
Departure
| Time | 2026-05-04 12:51 |
|---|---|
| Airport | Nuremberg Airport (EDDN) |
Arrival
| Time | N/A |
|---|---|
| Airport | Sibiu International Airport (LRSB) |
| Time | Latitude | Longitude | Altitude | Speed | Heading |
|---|---|---|---|---|---|
| 2026-05-04 12:19 | 49.49542 | 11.07516 | 1026 ft | 0 kts | 188° |
| 2026-05-04 12:41 | 49.49558 | 11.07520 | 1025 ft | 4 kts | 188° |
| 2026-05-04 12:41 | 49.49580 | 11.07526 | 1025 ft | 4 kts | 185° |
| 2026-05-04 12:41 | 49.49603 | 11.07520 | 1022 ft | 4 kts | 134° |
| 2026-05-04 12:42 | 49.49613 | 11.07490 | 1025 ft | 1 kts | 98° |
| 2026-05-04 12:45 | 49.49613 | 11.07492 | 1025 ft | 1 kts | 98° |
| 2026-05-04 12:46 | 49.49611 | 11.07512 | 1024 ft | 3 kts | 98° |
| 2026-05-04 12:46 | 49.49607 | 11.07552 | 1023 ft | 4 kts | 98° |
| 2026-05-04 12:46 | 49.49601 | 11.07604 | 1022 ft | 5 kts | 98° |
| 2026-05-04 12:46 | 49.49595 | 11.07665 | 1026 ft | 6 kts | 98° |
| 2026-05-04 12:47 | 49.49588 | 11.07737 | 1027 ft | 8 kts | 98° |
| 2026-05-04 12:47 | 49.49580 | 11.07823 | 1027 ft | 9 kts | 98° |
| 2026-05-04 12:47 | 49.49570 | 11.07924 | 1025 ft | 10 kts | 98° |
| 2026-05-04 12:47 | 49.49558 | 11.08043 | 1025 ft | 12 kts | 98° |
| 2026-05-04 12:48 | 49.49544 | 11.08181 | 1024 ft | 14 kts | 98° |
| 2026-05-04 12:48 | 49.49534 | 11.08319 | 1029 ft | 9 kts | 79° |
| 2026-05-04 12:48 | 49.49580 | 11.08355 | 1032 ft | 7 kts | 10° |
| 2026-05-04 12:48 | 49.49617 | 11.08393 | 1033 ft | 6 kts | 53° |
| 2026-05-04 12:49 | 49.49643 | 11.08446 | 1034 ft | 6 kts | 53° |
| 2026-05-04 12:49 | 49.49670 | 11.08504 | 1035 ft | 7 kts | 53° |
| 2026-05-04 12:49 | 49.49690 | 11.08540 | 1036 ft | 0 kts | 42° |
| 2026-05-04 12:49 | 49.49691 | 11.08541 | 1036 ft | 1 kts | 42° |
| 2026-05-04 12:50 | 49.49701 | 11.08553 | 1036 ft | 5 kts | 34° |
| 2026-05-04 12:50 | 49.49743 | 11.08569 | 1037 ft | 7 kts | 7° |
| 2026-05-04 12:50 | 49.49790 | 11.08560 | 1038 ft | 7 kts | 335° |
| 2026-05-04 12:50 | 49.49802 | 11.08501 | 1037 ft | 5 kts | 279° |
| 2026-05-04 12:51 | 49.49818 | 11.08346 | 1034 ft | 35 kts | 278° |
| 2026-05-04 12:51 | 49.49896 | 11.07559 | 1025 ft | 109 kts | 278° |
| 2026-05-04 12:51 | 49.50029 | 11.06132 | 1092 ft | 153 kts | 279° |
| 2026-05-04 12:51 | 49.50171 | 11.04555 | 1846 ft | 144 kts | 279° |
| 2026-05-04 12:52 | 49.50311 | 11.03054 | 2500 ft | 143 kts | 278° |
| 2026-05-04 12:52 | 49.50476 | 11.01423 | 2723 ft | 165 kts | 279° |
| 2026-05-04 12:52 | 49.50663 | 10.99561 | 2953 ft | 186 kts | 278° |
| 2026-05-04 12:52 | 49.50873 | 10.97464 | 3231 ft | 210 kts | 278° |
| 2026-05-04 12:53 | 49.51125 | 10.95120 | 3620 ft | 231 kts | 284° |
| 2026-05-04 12:53 | 49.51964 | 10.93072 | 4482 ft | 234 kts | 321° |
| 2026-05-04 12:53 | 49.53533 | 10.92062 | 4914 ft | 260 kts | 350° |
| 2026-05-04 12:53 | 49.55385 | 10.91899 | 5609 ft | 273 kts | 0° |
| 2026-05-04 12:54 | 49.57304 | 10.92055 | 6450 ft | 279 kts | 2° |
| 2026-05-04 12:54 | 49.59261 | 10.92289 | 7266 ft | 285 kts | 3° |
| 2026-05-04 12:54 | 49.61246 | 10.92698 | 8067 ft | 292 kts | 14° |
| 2026-05-04 12:54 | 49.63120 | 10.93954 | 8881 ft | 298 kts | 34° |
| 2026-05-04 12:55 | 49.64662 | 10.96101 | 9702 ft | 302 kts | 54° |
| 2026-05-04 12:55 | 49.65683 | 10.98952 | 10278 ft | 312 kts | 74° |
| 2026-05-04 12:55 | 49.65966 | 11.02341 | 10553 ft | 328 kts | 98° |
| 2026-05-04 12:55 | 49.65341 | 11.05692 | 11105 ft | 332 kts | 120° |
| 2026-05-04 12:56 | 49.64173 | 11.08845 | 11866 ft | 336 kts | 123° |
| 2026-05-04 12:56 | 49.63002 | 11.11941 | 12653 ft | 341 kts | 123° |
| 2026-05-04 12:56 | 49.61803 | 11.15116 | 13456 ft | 345 kts | 123° |
| 2026-05-04 12:56 | 49.60588 | 11.18334 | 14198 ft | 350 kts | 123° |
| 2026-05-04 12:57 | 49.59352 | 11.21589 | 14877 ft | 354 kts | 123° |
| 2026-05-04 12:57 | 49.58100 | 11.24879 | 15569 ft | 358 kts | 123° |
| 2026-05-04 12:57 | 49.56834 | 11.28206 | 16192 ft | 363 kts | 123° |
| 2026-05-04 12:57 | 49.55548 | 11.31587 | 16809 ft | 368 kts | 123° |
| 2026-05-04 12:58 | 49.54243 | 11.35014 | 17456 ft | 373 kts | 124° |
| 2026-05-04 12:58 | 49.52919 | 11.38478 | 18118 ft | 378 kts | 124° |
| 2026-05-04 12:58 | 49.51579 | 11.41981 | 18708 ft | 382 kts | 124° |
| 2026-05-04 12:58 | 49.50225 | 11.45519 | 19311 ft | 386 kts | 124° |
| 2026-05-04 12:59 | 49.48858 | 11.49092 | 19961 ft | 390 kts | 123° |
| 2026-05-04 12:59 | 49.47475 | 11.52702 | 20606 ft | 394 kts | 123° |
| 2026-05-04 12:59 | 49.46075 | 11.56349 | 21228 ft | 398 kts | 123° |
| 2026-05-04 12:59 | 49.44661 | 11.60025 | 21813 ft | 402 kts | 123° |
| 2026-05-04 13:00 | 49.43229 | 11.63735 | 22397 ft | 406 kts | 123° |
| 2026-05-04 13:00 | 49.41783 | 11.67476 | 22985 ft | 409 kts | 123° |
| 2026-05-04 13:00 | 49.40326 | 11.71243 | 23669 ft | 410 kts | 123° |
| 2026-05-04 13:00 | 49.38865 | 11.75012 | 24242 ft | 412 kts | 123° |
| 2026-05-04 13:01 | 49.37394 | 11.78803 | 24779 ft | 415 kts | 123° |
| 2026-05-04 13:01 | 49.35910 | 11.82630 | 25278 ft | 419 kts | 123° |
| 2026-05-04 13:01 | 49.34918 | 11.85184 | 25590 ft | 422 kts | 123° |
| 2026-05-04 13:01 | 49.33409 | 11.89062 | 26093 ft | 426 kts | 123° |
| 2026-05-04 13:02 | 49.31881 | 11.92976 | 26600 ft | 429 kts | 124° |
| 2026-05-04 13:02 | 49.30343 | 11.96909 | 27103 ft | 432 kts | 124° |
| 2026-05-04 13:02 | 49.28791 | 12.00877 | 27605 ft | 436 kts | 124° |
| 2026-05-04 13:02 | 49.27229 | 12.04870 | 28110 ft | 439 kts | 124° |
| 2026-05-04 13:03 | 49.25653 | 12.08898 | 28545 ft | 443 kts | 123° |
| 2026-05-04 13:03 | 49.24060 | 12.12962 | 28972 ft | 448 kts | 124° |
| 2026-05-04 13:03 | 49.22449 | 12.17068 | 29407 ft | 452 kts | 124° |
| 2026-05-04 13:03 | 49.20822 | 12.21207 | 29832 ft | 456 kts | 124° |
| 2026-05-04 13:04 | 49.19180 | 12.25370 | 30222 ft | 459 kts | 124° |
| 2026-05-04 13:04 | 49.17524 | 12.29562 | 30571 ft | 462 kts | 124° |
| 2026-05-04 13:04 | 49.15857 | 12.33772 | 30953 ft | 464 kts | 124° |
| 2026-05-04 13:04 | 49.14188 | 12.37979 | 31468 ft | 462 kts | 124° |
| 2026-05-04 13:05 | 49.12525 | 12.42165 | 31970 ft | 461 kts | 124° |
| 2026-05-04 13:05 | 49.10861 | 12.46348 | 32465 ft | 460 kts | 124° |
| 2026-05-04 13:05 | 49.09203 | 12.50519 | 32967 ft | 459 kts | 124° |
| 2026-05-04 13:05 | 49.07545 | 12.54679 | 33464 ft | 459 kts | 124° |
| 2026-05-04 13:06 | 49.05884 | 12.58827 | 33953 ft | 458 kts | 124° |
| 2026-05-04 13:06 | 49.04245 | 12.62910 | 34401 ft | 456 kts | 124° |
| 2026-05-04 13:06 | 49.02591 | 12.67027 | 34875 ft | 455 kts | 124° |
| 2026-05-04 13:06 | 49.00944 | 12.71131 | 35333 ft | 453 kts | 124° |
| 2026-05-04 13:07 | 48.99301 | 12.75221 | 35773 ft | 452 kts | 124° |
| 2026-05-04 13:07 | 48.97661 | 12.79295 | 36220 ft | 451 kts | 124° |
| 2026-05-04 13:07 | 48.96021 | 12.83356 | 36659 ft | 450 kts | 125° |
| 2026-05-04 13:07 | 48.94382 | 12.87405 | 36927 ft | 450 kts | 125° |
| 2026-05-04 13:08 | 48.92738 | 12.91460 | 36978 ft | 451 kts | 125° |
| 2026-05-04 13:08 | 48.89447 | 12.99580 | 36979 ft | 451 kts | 125° |
| 2026-05-04 13:09 | 48.86154 | 13.07690 | 36972 ft | 451 kts | 125° |
| 2026-05-04 13:09 | 48.82853 | 13.15786 | 36973 ft | 451 kts | 125° |
| 2026-05-04 13:10 | 48.79547 | 13.23872 | 36967 ft | 452 kts | 125° |
| 2026-05-04 13:10 | 48.76218 | 13.31959 | 36972 ft | 452 kts | 125° |
| 2026-05-04 13:11 | 48.72886 | 13.40049 | 36965 ft | 452 kts | 125° |
| 2026-05-04 13:11 | 48.69557 | 13.48123 | 36975 ft | 452 kts | 125° |
| 2026-05-04 13:12 | 48.66216 | 13.56179 | 36980 ft | 452 kts | 124° |
| 2026-05-04 13:12 | 48.63500 | 13.64781 | 36972 ft | 455 kts | 115° |
| 2026-05-04 13:13 | 48.61020 | 13.73585 | 36970 ft | 455 kts | 115° |
| 2026-05-04 13:13 | 48.58525 | 13.82378 | 36974 ft | 456 kts | 115° |
| 2026-05-04 13:14 | 48.56021 | 13.91165 | 36981 ft | 456 kts | 116° |
| 2026-05-04 13:14 | 48.53503 | 13.99939 | 36977 ft | 456 kts | 115° |
| 2026-05-04 13:15 | 48.50980 | 14.08708 | 36974 ft | 456 kts | 115° |
| 2026-05-04 13:15 | 48.48453 | 14.17472 | 36965 ft | 456 kts | 115° |
| 2026-05-04 13:16 | 48.45912 | 14.26229 | 36966 ft | 456 kts | 115° |
| 2026-05-04 13:16 | 48.43372 | 14.34978 | 36962 ft | 456 kts | 115° |
| 2026-05-04 13:17 | 48.40827 | 14.43720 | 36979 ft | 456 kts | 115° |
| 2026-05-04 13:17 | 48.38278 | 14.52453 | 36974 ft | 456 kts | 115° |
| 2026-05-04 13:18 | 48.35723 | 14.61169 | 36974 ft | 455 kts | 115° |
| 2026-05-04 13:18 | 48.33156 | 14.69866 | 36982 ft | 455 kts | 116° |
| 2026-05-04 13:19 | 48.30582 | 14.78549 | 36972 ft | 455 kts | 115° |
| 2026-05-04 13:19 | 48.28004 | 14.87220 | 36968 ft | 455 kts | 115° |
| 2026-05-04 13:20 | 48.25424 | 14.95884 | 36968 ft | 455 kts | 115° |
| 2026-05-04 13:20 | 48.22859 | 15.04485 | 36974 ft | 455 kts | 115° |
| 2026-05-04 13:21 | 48.20261 | 15.13128 | 36984 ft | 455 kts | 115° |
| 2026-05-04 13:21 | 48.17659 | 15.21772 | 36983 ft | 455 kts | 115° |
| 2026-05-04 13:22 | 48.15054 | 15.30417 | 36972 ft | 456 kts | 115° |